Time;durP1;ratioP1;P1;durP2;ratioP2;P2;SDS_P1;SDS_P2;PMS_P1;PMS_P2;Temp;Humidity;BMP_temperature;BMP_pressure;BME280_temperature;BME280_humidity;BME280_pressure;Samples;Min_cycle;Max_cycle;Signal;HPM_P1;HPM_P2
2022/10/20 00:01:16;;;;;;;20.93;9.80;;;8.50;99.90;;;;;;5030138;28;20317;-81
2022/10/20 00:03:44;;;;;;;20.87;9.53;;;8.40;99.90;;;;;;5008695;28;20202;-82
2022/10/20 00:06:20;;;;;;;17.73;9.90;;;8.50;99.90;;;;;;5011087;28;20209;-82
2022/10/20 00:08:48;;;;;;;14.40;9.60;;;8.40;99.90;;;;;;5028354;28;20281;-81
2022/10/20 00:11:17;;;;;;;16.67;9.27;;;8.40;99.90;;;;;;5029696;28;20301;-82
2022/10/20 00:13:46;;;;;;;12.07;9.60;;;8.30;99.90;;;;;;5028467;28;20246;-82
2022/10/20 00:16:14;;;;;;;16.00;9.77;;;8.30;99.90;;;;;;5008095;28;20217;-82
2022/10/20 00:18:42;;;;;;;19.53;11.27;;;8.30;99.90;;;;;;5011321;28;20332;-82
2022/10/20 00:21:12;;;;;;;12.97;8.60;;;8.30;99.90;;;;;;5030912;28;20229;-81
2022/10/20 00:23:40;;;;;;;16.07;10.00;;;8.30;99.90;;;;;;5028604;28;20360;-81
2022/10/20 00:26:11;;;;;;;16.63;9.83;;;8.20;99.90;;;;;;5029826;28;20224;-83
2022/10/20 00:28:41;;;;;;;19.53;10.23;;;8.20;99.90;;;;;;5006613;28;20202;-82
2022/10/20 00:31:12;;;;;;;17.50;8.93;;;8.20;99.90;;;;;;5029209;28;20305;-81
2022/10/20 00:33:41;;;;;;;15.27;9.20;;;8.20;99.90;;;;;;5012475;28;20206;-83
2022/10/20 00:36:12;;;;;;;16.27;9.50;;;8.20;99.90;;;;;;5033082;28;20276;-84
2022/10/20 00:38:38;;;;;;;14.93;9.63;;;8.20;99.90;;;;;;5028691;28;20202;-81
2022/10/20 00:41:06;;;;;;;19.57;8.97;;;8.20;99.90;;;;;;5026307;28;20222;-82
2022/10/20 00:44:17;;;;;;;19.83;9.93;;;8.20;99.90;;;;;;5025834;28;20325;-81
2022/10/20 00:46:44;;;;;;;16.47;9.13;;;8.20;99.90;;;;;;5007900;28;20217;-82
2022/10/20 00:49:22;;;;;;;18.13;10.60;;;8.20;99.90;;;;;;5028253;28;20310;-81
2022/10/20 00:51:51;;;;;;;12.17;9.17;;;8.20;99.90;;;;;;5026407;28;20345;-81
2022/10/20 00:54:24;;;;;;;16.13;9.70;;;8.10;99.90;;;;;;5028124;28;20213;-82
2022/10/20 00:56:53;;;;;;;15.70;9.33;;;8.10;99.90;;;;;;5028538;28;20240;-81
2022/10/20 00:59:24;;;;;;;17.10;9.07;;;8.10;99.90;;;;;;5028884;28;20208;-82
2022/10/20 01:01:52;;;;;;;17.20;9.77;;;8.10;99.90;;;;;;5030451;28;20293;-79
2022/10/20 01:04:21;;;;;;;15.40;9.63;;;8.00;99.90;;;;;;5010407;28;20607;-82
2022/10/20 01:06:48;;;;;;;12.63;8.87;;;8.10;99.90;;;;;;4993485;28;20205;-81
2022/10/20 01:09:15;;;;;;;17.53;10.17;;;8.20;99.90;;;;;;5027374;28;20201;-81
2022/10/20 01:11:52;;;;;;;14.70;9.70;;;8.10;99.90;;;;;;5008980;28;20753;-81
2022/10/20 01:14:38;;;;;;;13.53;9.03;;;8.10;99.90;;;;;;5028348;28;20197;-82
2022/10/20 01:17:27;;;;;;;18.73;10.10;;;8.10;99.90;;;;;;5010433;28;20233;-83
2022/10/20 01:20:15;;;;;;;16.20;9.70;;;8.10;99.90;;;;;;5024267;28;20311;-81
2022/10/20 01:22:55;;;;;;;16.50;9.47;;;8.10;99.90;;;;;;5025369;28;20204;-81
2022/10/20 01:25:48;;;;;;;18.87;9.00;;;8.10;99.90;;;;;;5026743;28;20195;-81
2022/10/20 01:28:19;;;;;;;12.83;9.00;;;8.00;99.90;;;;;;5029618;28;20206;-80
2022/10/20 01:30:52;;;;;;;16.67;9.50;;;8.10;99.90;;;;;;5024300;28;20263;-82
2022/10/20 01:33:42;;;;;;;17.30;9.23;;;8.10;99.90;;;;;;5028368;28;20199;-82
2022/10/20 01:36:21;;;;;;;16.97;8.53;;;8.10;99.90;;;;;;5030674;28;20215;-83
2022/10/20 01:38:55;;;;;;;14.10;9.50;;;8.10;99.90;;;;;;5029285;28;20255;-81
2022/10/20 01:41:49;;;;;;;16.07;8.97;;;8.00;99.90;;;;;;5028758;28;20309;-81
2022/10/20 01:44:19;;;;;;;15.47;9.03;;;7.90;99.90;;;;;;5001591;28;20292;-81
2022/10/20 01:46:47;;;;;;;15.40;9.50;;;7.90;99.90;;;;;;5011764;28;20739;-81
2022/10/20 01:49:14;;;;;;;16.23;8.97;;;8.00;99.90;;;;;;5012635;28;20245;-80
2022/10/20 01:51:41;;;;;;;14.57;9.73;;;8.10;99.90;;;;;;5039785;28;20247;-81
2022/10/20 01:54:20;;;;;;;14.23;9.33;;;7.90;99.90;;;;;;5041314;28;20233;-79
2022/10/20 01:57:05;;;;;;;15.70;9.17;;;7.90;99.90;;;;;;5039960;28;20208;-81
2022/10/20 01:59:40;;;;;;;17.20;9.20;;;7.90;99.90;;;;;;5041766;28;20472;-80
2022/10/20 02:02:44;;;;;;;13.57;8.83;;;7.90;99.90;;;;;;5040227;28;20225;-82
2022/10/20 02:05:32;;;;;;;19.73;9.43;;;7.90;99.90;;;;;;5044866;28;20234;-81
2022/10/20 02:08:37;;;;;;;15.13;8.80;;;7.90;99.90;;;;;;5025294;28;20208;-82
2022/10/20 02:11:08;;;;;;;15.80;9.60;;;7.80;99.90;;;;;;4985998;28;20286;-82
2022/10/20 02:13:37;;;;;;;18.27;9.07;;;7.80;99.90;;;;;;5028136;28;20279;-81
2022/10/20 02:16:11;;;;;;;14.57;8.50;;;7.80;99.90;;;;;;5014044;28;20190;-80
2022/10/20 02:18:42;;;;;;;14.57;9.13;;;7.80;99.90;;;;;;5006520;28;20256;-81
2022/10/20 02:21:10;;;;;;;11.00;8.47;;;7.80;99.90;;;;;;5024235;28;20377;-82
2022/10/20 02:23:41;;;;;;;15.63;9.33;;;7.80;99.90;;;;;;5010268;28;20208;-82
2022/10/20 02:26:13;;;;;;;20.30;9.80;;;7.80;99.90;;;;;;5031499;28;20292;-81
2022/10/20 02:28:43;;;;;;;13.43;9.10;;;7.80;99.90;;;;;;5028528;28;20623;-81
2022/10/20 02:31:11;;;;;;;17.57;9.23;;;7.80;99.90;;;;;;5008790;28;20233;-82
2022/10/20 02:33:38;;;;;;;16.37;9.73;;;7.80;99.90;;;;;;5009536;28;20209;-81
2022/10/20 02:36:11;;;;;;;16.23;9.07;;;7.80;99.90;;;;;;5010864;28;20235;-81
2022/10/20 02:38:38;;;;;;;13.27;8.93;;;7.80;99.90;;;;;;5011483;28;20214;-81
2022/10/20 02:41:04;;;;;;;20.80;9.87;;;7.80;99.90;;;;;;5035450;28;20697;-82
2022/10/20 02:43:31;;;;;;;15.30;9.27;;;7.80;99.90;;;;;;5033506;28;20236;-81
2022/10/20 02:45:58;;;;;;;17.23;9.10;;;7.80;99.90;;;;;;5032266;28;20379;-82
2022/10/20 02:48:25;;;;;;;14.60;9.93;;;7.90;99.90;;;;;;5013857;28;20270;-80
2022/10/20 02:50:52;;;;;;;16.00;9.13;;;7.70;99.90;;;;;;5013188;28;20684;-82
2022/10/20 02:53:18;;;;;;;14.33;9.57;;;7.70;99.90;;;;;;5033459;28;20200;-81
2022/10/20 02:55:45;;;;;;;15.47;9.70;;;7.70;99.90;;;;;;5016234;28;20222;-83
2022/10/20 02:58:12;;;;;;;14.60;9.30;;;7.70;99.90;;;;;;5015500;28;20247;-81
2022/10/20 03:00:39;;;;;;;15.87;9.00;;;7.70;99.90;;;;;;5012505;28;20794;-81
2022/10/20 03:03:06;;;;;;;16.07;9.47;;;7.70;99.90;;;;;;5032213;28;20218;-81
2022/10/20 03:05:37;;;;;;;21.97;9.57;;;7.70;99.90;;;;;;5031127;28;20223;-81
2022/10/20 03:08:04;;;;;;;17.43;9.30;;;7.80;99.90;;;;;;5032391;28;20208;-81
2022/10/20 03:10:30;;;;;;;13.63;9.37;;;7.70;99.90;;;;;;5030067;28;20202;-80
2022/10/20 03:12:57;;;;;;;14.03;9.07;;;7.80;99.90;;;;;;5030071;28;20241;-81
2022/10/20 03:15:24;;;;;;;18.87;11.23;;;7.70;99.90;;;;;;5029938;28;20311;-81
2022/10/20 03:17:51;;;;;;;15.63;9.03;;;7.70;99.90;;;;;;5029927;28;20769;-80
2022/10/20 03:20:17;;;;;;;18.17;9.40;;;7.70;99.90;;;;;;5030862;28;20696;-81
2022/10/20 03:22:44;;;;;;;14.20;9.13;;;7.70;99.90;;;;;;5037684;28;20291;-81
2022/10/20 03:25:12;;;;;;;17.93;9.60;;;7.70;99.90;;;;;;5027697;28;20221;-81
2022/10/20 03:27:39;;;;;;;17.73;9.97;;;7.80;99.90;;;;;;5013503;28;20746;-82
2022/10/20 03:30:07;;;;;;;15.27;9.37;;;7.70;99.90;;;;;;5030088;28;20307;-81
2022/10/20 03:32:34;;;;;;;13.30;8.97;;;7.80;99.90;;;;;;5033579;28;20216;-81
2022/10/20 03:35:01;;;;;;;15.47;9.20;;;7.70;99.90;;;;;;5009955;28;20388;-81
2022/10/20 03:37:28;;;;;;;15.77;8.80;;;7.80;99.90;;;;;;5030645;28;20205;-82
2022/10/20 03:39:54;;;;;;;17.77;9.13;;;7.80;99.90;;;;;;5030664;28;20244;-80
2022/10/20 03:42:21;;;;;;;13.47;9.10;;;7.90;99.90;;;;;;5032802;28;20221;-82
2022/10/20 03:44:48;;;;;;;14.97;9.20;;;7.80;99.90;;;;;;5030116;28;20209;-82
2022/10/20 03:47:15;;;;;;;17.10;8.13;;;7.80;99.90;;;;;;5031705;28;20632;-81
2022/10/20 03:49:41;;;;;;;14.87;9.90;;;7.80;99.90;;;;;;5026487;28;20230;-81
2022/10/20 03:52:08;;;;;;;14.73;9.03;;;7.80;99.90;;;;;;5012268;28;20213;-82
2022/10/20 03:54:35;;;;;;;16.80;8.43;;;7.80;99.90;;;;;;5030140;28;20213;-81
2022/10/20 03:57:02;;;;;;;16.37;9.00;;;7.80;99.90;;;;;;5034182;28;20210;-79
2022/10/20 03:59:33;;;;;;;14.20;8.93;;;7.80;99.90;;;;;;5029465;28;20198;-82
2022/10/20 04:02:00;;;;;;;15.90;9.50;;;7.80;99.90;;;;;;5030824;28;20236;-82
2022/10/20 04:04:27;;;;;;;12.13;8.90;;;7.80;99.90;;;;;;5039153;28;20227;-82
2022/10/20 04:06:54;;;;;;;15.13;8.90;;;7.80;99.90;;;;;;5030279;28;20200;-81
2022/10/20 04:09:21;;;;;;;19.90;9.07;;;7.70;99.90;;;;;;5012253;28;20197;-82
2022/10/20 04:11:47;;;;;;;16.40;9.30;;;7.80;99.90;;;;;;5029630;28;20214;-81
2022/10/20 04:14:14;;;;;;;19.83;9.63;;;7.70;99.90;;;;;;5027499;28;20239;-81
2022/10/20 04:16:42;;;;;;;13.17;8.80;;;7.70;99.90;;;;;;5030827;28;20244;-82
2022/10/20 04:19:09;;;;;;;15.00;8.30;;;7.70;99.90;;;;;;5037289;28;20959;-83
2022/10/20 04:21:35;;;;;;;13.93;9.23;;;7.70;99.90;;;;;;5038659;28;20423;-80
2022/10/20 04:24:04;;;;;;;17.17;9.90;;;7.70;99.90;;;;;;5038419;28;20559;-81
2022/10/20 04:26:30;;;;;;;12.93;8.73;;;7.70;99.90;;;;;;5033719;28;20198;-80
2022/10/20 04:28:57;;;;;;;14.63;9.23;;;7.70;99.90;;;;;;5032663;28;20190;-80
2022/10/20 04:31:24;;;;;;;19.20;9.73;;;7.90;99.90;;;;;;5032008;28;20213;-81
2022/10/20 04:33:51;;;;;;;17.17;9.70;;;7.70;99.90;;;;;;5030480;28;20211;-82
2022/10/20 04:36:17;;;;;;;19.67;9.27;;;7.70;99.90;;;;;;5030882;28;20213;-80
2022/10/20 04:38:44;;;;;;;19.10;9.63;;;7.70;99.90;;;;;;5029498;28;20228;-81
2022/10/20 04:41:11;;;;;;;16.03;9.27;;;7.70;99.90;;;;;;5031945;28;20228;-80
2022/10/20 04:43:38;;;;;;;14.83;8.97;;;7.70;99.90;;;;;;5030032;28;20303;-80
2022/10/20 04:46:06;;;;;;;16.60;9.60;;;7.70;99.90;;;;;;5029352;28;20290;-80
2022/10/20 04:48:35;;;;;;;14.13;9.17;;;7.80;99.90;;;;;;5034103;28;20213;-81
2022/10/20 04:51:08;;;;;;;22.67;8.83;;;7.70;99.90;;;;;;5030891;28;20611;-81
2022/10/20 04:53:35;;;;;;;18.80;9.83;;;7.80;99.90;;;;;;5029392;28;20285;-81
2022/10/20 04:56:03;;;;;;;19.60;9.70;;;7.80;99.90;;;;;;5029268;28;20689;-81
2022/10/20 04:58:33;;;;;;;15.93;9.87;;;7.80;99.90;;;;;;5028586;28;20531;-80
2022/10/20 05:01:08;;;;;;;16.93;9.63;;;7.80;99.90;;;;;;5025908;28;20232;-80
2022/10/20 05:03:36;;;;;;;18.67;9.90;;;7.80;99.90;;;;;;5010784;28;20233;-81
2022/10/20 05:06:16;;;;;;;17.93;10.73;;;7.80;99.90;;;;;;5011002;28;20240;-79
2022/10/20 05:08:45;;;;;;;16.77;10.23;;;7.80;99.90;;;;;;5025866;28;20205;-82
2022/10/20 05:11:14;;;;;;;16.80;10.87;;;7.80;99.90;;;;;;5033350;28;20209;-81
2022/10/20 05:13:41;;;;;;;17.33;9.77;;;7.70;99.90;;;;;;5029145;28;20420;-80
2022/10/20 05:16:09;;;;;;;15.17;10.13;;;7.90;99.90;;;;;;5010046;28;20212;-81
2022/10/20 05:18:37;;;;;;;18.43;9.87;;;7.90;99.90;;;;;;5027215;28;20249;-80
2022/10/20 05:21:15;;;;;;;18.53;10.60;;;7.90;99.90;;;;;;5027609;28;20694;-81
2022/10/20 05:23:43;;;;;;;16.87;9.30;;;7.90;99.90;;;;;;5032655;28;20248;-81
2022/10/20 05:26:13;;;;;;;18.93;11.60;;;7.90;99.90;;;;;;5027245;28;20202;-81
2022/10/20 05:28:43;;;;;;;19.87;10.33;;;8.00;99.90;;;;;;5025178;28;20209;-80
2022/10/20 05:31:10;;;;;;;17.67;9.67;;;8.00;99.90;;;;;;5028257;28;20734;-81
2022/10/20 05:33:38;;;;;;;17.50;10.17;;;8.00;99.90;;;;;;5027762;28;20292;-80
2022/10/20 05:36:09;;;;;;;16.03;9.93;;;8.10;99.90;;;;;;5012949;28;20626;-81
2022/10/20 05:38:40;;;;;;;16.87;9.87;;;8.00;99.90;;;;;;5011283;28;20240;-82
2022/10/20 05:41:13;;;;;;;15.80;10.30;;;8.10;99.90;;;;;;5009893;28;20221;-82
2022/10/20 05:43:40;;;;;;;18.03;10.27;;;8.20;99.90;;;;;;5026416;28;20201;-81
2022/10/20 05:46:08;;;;;;;19.50;10.57;;;8.10;99.90;;;;;;5027151;28;20233;-81
2022/10/20 05:48:35;;;;;;;16.50;10.10;;;8.10;99.90;;;;;;5025676;28;20202;-81
2022/10/20 05:51:11;;;;;;;17.53;11.00;;;8.20;99.90;;;;;;5027636;28;20201;-79
2022/10/20 05:53:43;;;;;;;17.50;10.37;;;8.10;99.90;;;;;;5015240;28;20203;-78
2022/10/20 05:56:13;;;;;;;18.73;11.30;;;8.00;99.90;;;;;;5019401;28;20226;-80
2022/10/20 05:58:41;;;;;;;17.53;11.03;;;8.20;99.90;;;;;;5016372;28;20293;-81
2022/10/20 06:01:19;;;;;;;15.57;10.37;;;8.20;99.90;;;;;;5026237;28;20315;-81
2022/10/20 06:03:58;;;;;;;16.50;10.27;;;8.10;99.90;;;;;;5024489;28;20241;-81
2022/10/20 06:06:28;;;;;;;17.23;10.83;;;8.20;99.90;;;;;;5025992;28;20216;-82
2022/10/20 06:08:57;;;;;;;17.30;10.70;;;8.30;99.90;;;;;;5027937;28;20233;-81
2022/10/20 06:11:24;;;;;;;22.67;11.70;;;8.30;99.90;;;;;;5026760;28;20611;-80
2022/10/20 06:13:52;;;;;;;21.20;11.00;;;8.30;99.90;;;;;;5031795;28;20234;-82
2022/10/20 06:16:26;;;;;;;17.97;11.27;;;8.30;99.90;;;;;;5030852;28;20202;-83
2022/10/20 06:18:53;;;;;;;17.07;10.53;;;8.30;99.90;;;;;;5038227;28;20206;-81
2022/10/20 06:21:23;;;;;;;20.77;11.00;;;8.30;99.90;;;;;;5033017;28;20712;-81
2022/10/20 06:23:52;;;;;;;18.43;11.07;;;8.40;99.90;;;;;;5013912;28;20285;-81
2022/10/20 06:26:24;;;;;;;19.83;11.60;;;8.40;99.90;;;;;;5028364;28;20216;-81
2022/10/20 06:28:54;;;;;;;20.03;12.00;;;8.40;99.90;;;;;;5014468;28;20198;-81
2022/10/20 06:31:37;;;;;;;22.70;10.73;;;8.40;99.90;;;;;;5008246;28;20205;-81
2022/10/20 06:34:06;;;;;;;17.23;11.60;;;8.40;99.90;;;;;;5031413;28;20264;-82
2022/10/20 06:36:41;;;;;;;20.97;11.07;;;8.40;99.90;;;;;;5034713;28;20194;-83
2022/10/20 06:39:11;;;;;;;22.53;12.03;;;8.50;99.90;;;;;;5013680;28;20221;-83
2022/10/20 06:41:38;;;;;;;19.20;11.33;;;8.50;99.90;;;;;;5044840;28;20237;-81
2022/10/20 06:44:06;;;;;;;18.73;11.37;;;8.50;99.90;;;;;;5045312;28;20216;-80
2022/10/20 06:46:36;;;;;;;17.93;12.07;;;8.50;99.90;;;;;;5015395;28;20804;-81
2022/10/20 06:49:06;;;;;;;21.73;12.03;;;8.50;99.90;;;;;;5028769;28;20218;-81
2022/10/20 06:51:34;;;;;;;18.90;11.67;;;8.50;99.90;;;;;;5032636;28;20221;-81
2022/10/20 06:54:01;;;;;;;20.37;12.27;;;8.60;99.90;;;;;;5028148;28;20229;-81
2022/10/20 06:56:31;;;;;;;18.43;11.13;;;8.60;99.90;;;;;;5031286;28;20244;-80
2022/10/20 06:59:01;;;;;;;18.87;11.97;;;8.70;99.90;;;;;;5013730;28;20205;-81
2022/10/20 07:01:33;;;;;;;23.03;12.20;;;8.70;99.90;;;;;;5030275;28;20249;-81
2022/10/20 07:04:03;;;;;;;16.60;11.57;;;8.70;99.90;;;;;;5031118;28;20234;-81
2022/10/20 07:06:34;;;;;;;20.90;12.30;;;8.80;99.90;;;;;;5013515;28;20206;-82
2022/10/20 07:09:03;;;;;;;22.30;12.60;;;8.80;99.90;;;;;;5027803;28;20210;-82
2022/10/20 07:11:30;;;;;;;18.87;12.37;;;8.90;99.90;;;;;;5031086;28;20206;-82
2022/10/20 07:13:58;;;;;;;18.37;11.53;;;9.00;99.90;;;;;;5031774;28;20261;-81
2022/10/20 07:16:27;;;;;;;18.33;11.87;;;9.00;99.90;;;;;;5014111;28;20547;-78
2022/10/20 07:18:56;;;;;;;19.33;12.00;;;9.00;99.90;;;;;;5031018;28;20713;-77
2022/10/20 07:21:29;;;;;;;19.87;11.47;;;9.10;99.90;;;;;;5029402;28;20259;-77
2022/10/20 07:24:04;;;;;;;19.97;11.80;;;9.10;99.90;;;;;;5006228;28;20208;-76
2022/10/20 07:26:37;;;;;;;20.60;12.23;;;9.10;99.90;;;;;;5030012;28;20253;-77
2022/10/20 07:29:04;;;;;;;19.00;12.00;;;9.20;99.90;;;;;;5027024;28;20262;-77
2022/10/20 07:31:38;;;;;;;21.20;11.93;;;9.30;99.90;;;;;;5029192;28;20813;-77
2022/10/20 07:34:07;;;;;;;18.57;11.40;;;9.30;99.90;;;;;;5026338;28;20661;-77
2022/10/20 07:36:52;;;;;;;18.87;12.40;;;9.40;99.90;;;;;;5027605;28;20247;-77
2022/10/20 07:39:20;;;;;;;17.47;11.97;;;9.50;99.90;;;;;;5012814;28;20216;-76
2022/10/20 07:41:46;;;;;;;20.00;11.40;;;9.70;99.90;;;;;;5023503;28;20233;-76
2022/10/20 07:44:14;;;;;;;17.57;11.97;;;9.70;99.90;;;;;;5024165;28;20275;-77
2022/10/20 07:46:41;;;;;;;16.80;12.13;;;9.80;99.90;;;;;;5027842;28;20220;-78
2022/10/20 07:49:08;;;;;;;18.10;12.23;;;;;;;;;;5028903;28;20225;-76
2022/10/20 07:51:55;;;;;;;19.37;12.10;;;9.90;99.90;;;;;;5026918;28;20306;-76
2022/10/20 07:54:22;;;;;;;17.03;11.70;;;9.90;99.90;;;;;;5028179;28;20463;-78
2022/10/20 07:56:49;;;;;;;21.47;12.07;;;10.00;99.90;;;;;;5029349;28;20205;-77
2022/10/20 07:59:16;;;;;;;17.20;12.13;;;10.10;99.90;;;;;;5019948;28;20205;-78
2022/10/20 08:01:43;;;;;;;19.00;12.23;;;10.20;99.90;;;;;;5029156;28;20520;-78
2022/10/20 08:04:10;;;;;;;16.43;11.70;;;10.30;99.90;;;;;;5029490;28;20233;-77
2022/10/20 08:06:37;;;;;;;20.03;11.27;;;10.40;99.90;;;;;;5029790;28;20209;-78
2022/10/20 08:09:06;;;;;;;16.40;10.53;;;10.50;99.90;;;;;;5029788;28;20291;-78
2022/10/20 08:11:33;;;;;;;19.07;11.50;;;10.50;99.90;;;;;;5029616;28;20271;-77
2022/10/20 08:14:00;;;;;;;16.57;11.63;;;10.70;99.90;;;;;;5028984;28;20385;-79
2022/10/20 08:16:27;;;;;;;16.50;11.70;;;10.70;99.90;;;;;;5029000;28;20253;-77
2022/10/20 08:18:57;;;;;;;18.60;10.50;;;10.70;99.90;;;;;;5026110;28;20312;-77
2022/10/20 08:21:46;;;;;;;18.00;11.70;;;10.80;99.90;;;;;;5023802;28;20230;-76
2022/10/20 08:24:13;;;;;;;16.00;10.80;;;10.90;99.90;;;;;;5028595;28;20690;-75
2022/10/20 08:26:40;;;;;;;15.63;11.03;;;10.90;99.90;;;;;;5027865;28;20260;-77
2022/10/20 08:29:07;;;;;;;15.83;10.73;;;11.00;99.90;;;;;;5027600;28;20268;-76
2022/10/20 08:31:34;;;;;;;17.03;11.20;;;11.00;99.90;;;;;;5027809;28;20288;-78
2022/10/20 08:34:04;;;;;;;16.93;11.17;;;11.10;99.90;;;;;;5028280;28;20252;-76
2022/10/20 08:36:31;;;;;;;16.70;11.27;;;11.10;99.90;;;;;;5028971;28;20234;-77
2022/10/20 08:38:58;;;;;;;17.90;11.50;;;11.20;99.90;;;;;;5027776;28;20680;-77
2022/10/20 08:41:35;;;;;;;17.37;11.60;;;11.10;99.90;;;;;;5002155;28;20225;-77
2022/10/20 08:44:28;;;;;;;18.60;11.53;;;11.20;99.90;;;;;;5024675;28;20208;-77
2022/10/20 08:46:55;;;;;;;18.90;11.63;;;11.20;99.90;;;;;;5029347;28;20256;-77
2022/10/20 08:49:32;;;;;;;16.10;11.60;;;11.20;99.90;;;;;;5020384;28;20220;-76
2022/10/20 08:52:00;;;;;;;17.60;11.40;;;11.20;99.90;;;;;;5010832;28;20296;-77
2022/10/20 08:54:27;;;;;;;17.43;11.43;;;11.30;99.90;;;;;;5028955;28;20680;-77
2022/10/20 08:56:55;;;;;;;17.37;11.70;;;11.40;99.90;;;;;;5028639;28;20674;-79
2022/10/20 08:59:29;;;;;;;15.53;11.10;;;11.50;99.90;;;;;;5028611;28;20210;-79
2022/10/20 09:01:56;;;;;;;20.10;11.53;;;11.60;99.90;;;;;;5028607;28;20772;-77
2022/10/20 09:04:34;;;;;;;16.03;10.40;;;11.70;99.90;;;;;;5021693;28;20218;-77
2022/10/20 09:07:11;;;;;;;18.17;11.80;;;11.90;99.90;;;;;;5025706;28;20204;-77
2022/10/20 09:09:38;;;;;;;17.23;11.40;;;11.90;99.90;;;;;;5009967;28;20574;-76
2022/10/20 09:12:11;;;;;;;18.60;11.93;;;12.00;99.90;;;;;;5027337;28;20650;-77
2022/10/20 09:14:38;;;;;;;17.03;11.53;;;12.10;99.90;;;;;;5010234;28;20202;-77
2022/10/20 09:17:11;;;;;;;17.07;10.97;;;12.10;99.90;;;;;;5008243;28;20739;-76
2022/10/20 09:19:38;;;;;;;15.90;11.80;;;12.10;99.90;;;;;;5027772;28;20264;-77
2022/10/20 09:22:06;;;;;;;17.33;11.83;;;12.30;99.90;;;;;;5024939;28;20218;-76
2022/10/20 09:24:34;;;;;;;19.57;12.10;;;12.30;99.90;;;;;;5027343;28;20305;-75
2022/10/20 09:27:38;;;;;;;19.33;12.40;;;12.40;99.90;;;;;;5022009;28;20219;-78
2022/10/20 09:30:21;;;;;;;16.67;11.20;;;12.50;99.90;;;;;;4984637;28;20201;-79
2022/10/20 09:32:49;;;;;;;17.63;11.87;;;12.60;99.90;;;;;;5020106;28;20280;-79
2022/10/20 09:35:23;;;;;;;17.17;11.37;;;12.70;99.90;;;;;;5008316;28;20230;-77
2022/10/20 09:38:18;;;;;;;16.37;11.13;;;12.80;99.90;;;;;;5030085;28;20223;-76
2022/10/20 09:41:01;;;;;;;17.97;10.43;;;13.00;99.90;;;;;;5009487;28;20306;-76
2022/10/20 09:43:28;;;;;;;18.73;11.77;;;13.50;99.90;;;;;;5007621;28;20233;-78
2022/10/20 09:46:04;;;;;;;13.87;10.83;;;13.20;99.90;;;;;;5007686;28;20297;-75
2022/10/20 09:48:35;;;;;;;17.20;10.67;;;13.30;99.90;;;;;;5028502;28;20300;-75
2022/10/20 09:51:05;;;;;;;15.53;10.53;;;13.30;99.90;;;;;;5024463;28;20218;-75
2022/10/20 09:53:36;;;;;;;17.30;10.97;;;13.30;99.90;;;;;;5028860;28;20658;-77
2022/10/20 09:56:03;;;;;;;16.97;10.43;;;13.00;99.90;;;;;;5024451;28;20202;-76
2022/10/20 09:58:32;;;;;;;16.27;11.13;;;;;;;;;;5031611;28;20289;-75
2022/10/20 10:01:14;;;;;;;15.37;11.27;;;13.40;99.90;;;;;;5007359;28;20744;-76
2022/10/20 10:03:44;;;;;;;13.63;10.47;;;13.40;99.90;;;;;;5030812;28;20641;-76
2022/10/20 10:06:20;;;;;;;14.97;10.77;;;13.40;99.90;;;;;;5028407;28;20280;-76
2022/10/20 10:08:49;;;;;;;17.57;11.10;;;13.40;99.90;;;;;;5029071;28;20205;-77
2022/10/20 10:11:19;;;;;;;15.93;11.00;;;13.50;99.90;;;;;;5028833;28;20205;-77
2022/10/20 10:13:48;;;;;;;15.13;11.47;;;13.50;99.90;;;;;;5024817;28;20320;-76
2022/10/20 10:16:23;;;;;;;17.00;11.30;;;13.60;99.90;;;;;;5029310;28;20289;-75
2022/10/20 10:19:00;;;;;;;15.40;12.03;;;13.70;99.90;;;;;;5007632;28;20305;-76
2022/10/20 10:21:44;;;;;;;17.33;11.40;;;13.70;99.90;;;;;;5026718;28;20333;-76
2022/10/20 10:24:46;;;;;;;15.87;11.00;;;13.70;99.90;;;;;;5027226;28;20321;-76
2022/10/20 10:27:33;;;;;;;18.63;11.80;;;13.70;99.90;;;;;;5022110;28;20313;-76
2022/10/20 10:30:28;;;;;;;17.67;11.70;;;13.70;99.90;;;;;;5025656;28;20305;-80
2022/10/20 10:32:55;;;;;;;17.70;11.87;;;13.70;99.90;;;;;;5021228;28;20218;-75
2022/10/20 10:35:52;;;;;;;17.07;11.87;;;13.60;99.90;;;;;;5022394;28;20263;-77
2022/10/20 10:38:20;;;;;;;16.97;11.70;;;13.70;99.90;;;;;;5006109;28;20370;-78
2022/10/20 10:40:55;;;;;;;16.53;11.80;;;13.70;99.90;;;;;;5028425;28;20308;-77
2022/10/20 10:44:06;;;;;;;18.40;12.23;;;13.70;99.90;;;;;;5023845;28;20219;-78
2022/10/20 10:46:45;;;;;;;20.07;12.03;;;13.80;99.90;;;;;;5006110;28;20209;-75
2022/10/20 10:49:45;;;;;;;18.00;12.20;;;13.70;99.90;;;;;;5010926;28;20309;-77
2022/10/20 10:52:30;;;;;;;18.07;11.80;;;13.70;99.90;;;;;;5020077;28;20216;-77
2022/10/20 10:55:15;;;;;;;21.57;12.30;;;13.70;99.90;;;;;;5024161;28;20220;-76
2022/10/20 10:58:23;;;;;;;19.73;13.07;;;13.70;99.90;;;;;;5027632;28;20212;-77
2022/10/20 11:01:24;;;;;;;19.90;12.70;;;13.70;99.90;;;;;;5009170;28;20612;-76
2022/10/20 11:04:10;;;;;;;20.43;12.97;;;13.70;99.90;;;;;;4988150;28;20586;-75
2022/10/20 11:06:41;;;;;;;16.30;12.27;;;13.70;99.90;;;;;;5019673;28;20206;-77
2022/10/20 11:09:22;;;;;;;19.83;13.23;;;13.70;99.90;;;;;;5024320;28;20221;-77
2022/10/20 11:12:17;;;;;;;22.27;13.47;;;13.70;99.90;;;;;;5024427;28;20523;-77
2022/10/20 11:14:58;;;;;;;22.93;12.53;;;13.70;99.90;;;;;;5027635;28;20388;-76
2022/10/20 11:17:31;;;;;;;24.47;13.43;;;13.80;99.90;;;;;;5024078;28;20294;-78
2022/10/20 11:20:09;;;;;;;19.23;13.20;;;13.80;99.90;;;;;;5010820;28;20230;-77
2022/10/20 11:22:58;;;;;;;20.37;13.00;;;13.80;99.90;;;;;;5029930;28;20352;-75
2022/10/20 11:26:01;;;;;;;22.00;12.90;;;13.90;99.90;;;;;;5010768;28;20233;-76
2022/10/20 11:28:43;;;;;;;20.43;12.87;;;13.90;99.90;;;;;;5027095;28;20201;-75
2022/10/20 11:31:40;;;;;;;20.93;13.10;;;13.90;99.90;;;;;;5011598;28;20226;-75
2022/10/20 11:34:23;;;;;;;21.23;13.60;;;14.00;99.90;;;;;;5004296;28;20315;-77
2022/10/20 11:37:06;;;;;;;20.43;13.07;;;14.00;99.90;;;;;;5027839;28;20324;-75
2022/10/20 11:39:40;;;;;;;20.27;14.27;;;14.00;99.90;;;;;;5019974;28;20199;-76
2022/10/20 11:42:38;;;;;;;20.60;13.93;;;14.00;99.90;;;;;;5026851;28;20295;-75
2022/10/20 11:45:23;;;;;;;21.53;13.60;;;14.00;99.90;;;;;;5024657;28;20226;-77
2022/10/20 11:47:56;;;;;;;22.67;13.73;;;14.00;99.90;;;;;;5026199;28;20202;-75
2022/10/20 11:50:24;;;;;;;24.03;14.30;;;14.00;99.90;;;;;;5027775;28;20653;-75
2022/10/20 11:53:27;;;;;;;19.50;13.73;;;14.00;99.90;;;;;;5027247;28;20214;-75
2022/10/20 11:56:08;;;;;;;25.67;14.90;;;14.00;99.90;;;;;;5024456;28;20243;-75
2022/10/20 11:58:52;;;;;;;27.97;15.77;;;14.00;99.90;;;;;;5025793;28;20202;-76
2022/10/20 12:01:34;;;;;;;21.73;13.77;;;14.00;99.90;;;;;;5027787;28;20220;-75
2022/10/20 12:04:16;;;;;;;28.30;15.43;;;14.00;99.90;;;;;;5026421;28;20737;-76
2022/10/20 12:06:55;;;;;;;23.10;14.93;;;14.00;99.90;;;;;;5022417;28;20210;-77
2022/10/20 12:09:54;;;;;;;25.70;15.80;;;13.90;99.90;;;;;;5025409;28;20684;-75
2022/10/20 12:13:14;;;;;;;25.83;15.20;;;14.00;99.90;;;;;;5022352;28;20324;-75
2022/10/20 12:15:51;;;;;;;25.37;15.60;;;14.00;99.90;;;;;;4914291;29;20528;-75
2022/10/20 12:18:30;;;;;;;24.97;15.83;;;14.00;99.90;;;;;;4926613;29;20304;-75
2022/10/20 12:21:06;;;;;;;30.93;17.40;;;14.00;99.90;;;;;;4971524;28;20218;-75
2022/10/20 12:23:42;;;;;;;28.00;17.63;;;13.90;99.90;;;;;;5023948;28;20243;-75
2022/10/20 12:26:33;;;;;;;26.53;16.70;;;13.90;99.90;;;;;;5025526;28;20202;-75
2022/10/20 12:29:21;;;;;;;33.40;18.10;;;14.00;99.90;;;;;;5008063;28;20194;-75
2022/10/20 12:32:26;;;;;;;26.63;17.67;;;13.90;99.90;;;;;;5023500;28;20938;-76
2022/10/20 12:35:00;;;;;;;32.90;18.07;;;13.90;99.90;;;;;;5085612;27;20577;-75
2022/10/20 12:37:32;;;;;;;29.53;18.40;;;13.80;99.90;;;;;;5076832;28;20616;-74
2022/10/20 12:40:05;;;;;;;31.80;18.63;;;13.80;99.90;;;;;;5038938;28;20669;-75
2022/10/20 12:42:37;;;;;;;29.93;19.50;;;13.80;99.90;;;;;;5040784;28;20217;-75
2022/10/20 12:45:35;;;;;;;30.33;18.70;;;13.80;99.90;;;;;;5043876;28;20201;-76
2022/10/20 12:48:03;;;;;;;33.17;20.07;;;13.80;99.90;;;;;;5044077;28;20378;-75
2022/10/20 12:50:38;;;;;;;29.80;18.90;;;13.70;99.90;;;;;;5040025;28;20263;-73
2022/10/20 12:53:28;;;;;;;32.40;19.80;;;13.80;99.90;;;;;;5040495;28;20595;-76
2022/10/20 12:55:56;;;;;;;34.13;19.83;;;13.80;99.90;;;;;;5036610;28;20646;-76
2022/10/20 12:58:27;;;;;;;34.83;20.07;;;13.80;99.90;;;;;;5045051;28;20201;-75
2022/10/20 13:00:55;;;;;;;40.67;21.30;;;13.80;99.90;;;;;;5040978;28;20256;-76
2022/10/20 13:03:49;;;;;;;35.83;20.60;;;13.80;99.90;;;;;;5047670;28;20293;-75
2022/10/20 13:06:22;;;;;;;34.33;20.50;;;13.80;99.90;;;;;;5036259;28;20241;-75
2022/10/20 13:09:09;;;;;;;35.13;21.27;;;13.80;99.90;;;;;;5043305;28;20581;-76
2022/10/20 13:11:39;;;;;;;40.27;22.30;;;13.80;99.90;;;;;;5049179;28;20201;-75